createdAt,value
2018-12-11T00:00:21.495Z,125.57
2018-12-11T00:02:29.521Z,130.17
2018-12-11T00:04:36.529Z,135.60
2018-12-11T00:06:43.958Z,135.43
2018-12-11T00:08:50.782Z,130.17
2018-12-11T00:10:57.519Z,134.73
2018-12-11T00:13:04.414Z,134.63
2018-12-11T00:15:12.640Z,138.47
2018-12-11T00:17:19.346Z,137.13
2018-12-11T00:19:26.297Z,136.93
2018-12-11T00:21:33.146Z,135.17
2018-12-11T00:23:39.818Z,130.47
2018-12-11T00:25:46.514Z,125.77
2018-12-11T00:27:53.487Z,131.80
2018-12-11T00:30:00.354Z,132.90
2018-12-11T00:32:07.522Z,146.55
2018-12-11T00:34:14.130Z,119.03
2018-12-11T00:36:21.008Z,120.13
2018-12-11T00:38:27.989Z,117.47
2018-12-11T00:40:35.042Z,122.00
2018-12-11T00:42:41.755Z,114.67
2018-12-11T00:44:48.727Z,112.10
2018-12-11T00:46:55.832Z,119.90
2018-12-11T00:49:02.983Z,121.83
2018-12-11T00:51:09.700Z,125.43
2018-12-11T00:53:16.389Z,128.23
2018-12-11T00:55:23.018Z,133.87
2018-12-11T00:57:30.013Z,130.53
2018-12-11T00:59:36.974Z,130.67
2018-12-11T01:01:43.966Z,130.17
2018-12-11T01:03:50.784Z,133.70
2018-12-11T01:05:57.881Z,132.03
2018-12-11T01:08:04.705Z,133.00
2018-12-11T01:10:12.005Z,132.33
2018-12-11T01:12:18.714Z,135.50
2018-12-11T01:14:25.513Z,138.50
2018-12-11T01:16:32.648Z,135.43
2018-12-11T01:18:39.806Z,136.83
2018-12-11T01:20:46.479Z,136.30
2018-12-11T01:22:53.232Z,134.13
2018-12-11T01:24:59.985Z,135.07
2018-12-11T01:27:06.953Z,136.80
2018-12-11T01:29:13.818Z,131.97
2018-12-11T01:31:20.641Z,130.30
2018-12-11T01:33:27.807Z,126.70
2018-12-11T01:35:34.493Z,114.03
2018-12-11T01:37:41.509Z,113.70
2018-12-11T01:39:48.349Z,115.23
2018-12-11T01:41:56.543Z,110.77
2018-12-11T01:44:03.330Z,112.70
2018-12-11T01:46:10.165Z,115.93
2018-12-11T01:48:16.985Z,119.83
2018-12-11T01:50:23.806Z,116.67
2018-12-11T01:52:30.636Z,118.30
2018-12-11T01:54:37.723Z,122.47
2018-12-11T01:56:44.578Z,128.33
2018-12-11T01:58:51.362Z,127.13
2018-12-11T02:00:58.141Z,128.23
2018-12-11T02:03:05.480Z,126.83
2018-12-11T02:05:12.208Z,127.87
2018-12-11T02:07:19.174Z,131.53
2018-12-11T02:09:25.916Z,123.93
2018-12-11T02:11:32.704Z,115.97
2018-12-11T02:13:39.648Z,122.90
2018-12-11T02:15:46.856Z,123.13
2018-12-11T02:17:53.514Z,122.57
2018-12-11T02:20:00.538Z,124.40
2018-12-11T02:22:07.572Z,133.17
2018-12-11T02:24:14.534Z,131.57
2018-12-11T02:26:21.334Z,128.27
2018-12-11T02:28:28.191Z,131.73
2018-12-11T02:30:35.036Z,131.13
2018-12-11T02:32:42.377Z,130.90
2018-12-11T02:34:49.302Z,135.87
2018-12-11T02:36:56.237Z,130.67
2018-12-11T02:39:03.776Z,119.77
2018-12-11T02:41:10.543Z,116.97
2018-12-11T02:43:17.310Z,114.33
2018-12-11T02:45:24.065Z,108.73
2018-12-11T02:47:31.266Z,110.53
2018-12-11T02:49:38.817Z,115.63
2018-12-11T02:51:45.626Z,108.83
2018-12-11T02:53:53.406Z,111.23
2018-12-11T02:56:00.302Z,121.47
2018-12-11T02:58:07.155Z,115.40
2018-12-11T03:00:14.110Z,121.40
2018-12-11T03:02:21.186Z,125.70
2018-12-11T03:04:28.266Z,121.90
2018-12-11T03:06:35.134Z,124.67
2018-12-11T03:08:41.945Z,127.63
2018-12-11T03:10:48.608Z,124.90
2018-12-11T03:12:55.724Z,124.83
2018-12-11T03:15:02.518Z,125.83
2018-12-11T03:17:09.552Z,120.77
2018-12-11T03:19:16.463Z,124.37
2018-12-11T03:21:23.556Z,122.30
2018-12-11T03:23:31.641Z,122.70
2018-12-11T03:25:39.337Z,119.37
2018-12-11T03:27:46.488Z,126.03
2018-12-11T03:29:53.445Z,120.87
2018-12-11T03:32:00.841Z,122.70
2018-12-11T03:34:07.829Z,126.07
2018-12-11T03:36:14.564Z,118.30
2018-12-11T03:38:21.178Z,111.30
2018-12-11T03:40:28.165Z,105.57
2018-12-11T03:42:35.010Z,104.37
2018-12-11T03:44:42.084Z,96.40
2018-12-11T03:46:48.855Z,98.00
2018-12-11T03:48:55.813Z,98.20
2018-12-11T03:51:03.198Z,123.53
2018-12-11T03:53:10.724Z,113.23
2018-12-11T03:55:17.699Z,118.63
2018-12-11T03:57:24.685Z,114.17
2018-12-11T03:59:31.644Z,110.10
2018-12-11T04:01:38.592Z,113.40
2018-12-11T04:03:45.456Z,95.07
2018-12-11T04:05:52.759Z,97.57
2018-12-11T04:07:59.404Z,94.80
2018-12-11T04:10:06.173Z,88.40
2018-12-11T04:12:13.638Z,86.47
2018-12-11T04:14:20.876Z,80.40
2018-12-11T04:16:28.300Z,86.13
2018-12-11T04:18:35.495Z,110.97
2018-12-11T04:20:42.389Z,99.63
2018-12-11T04:22:49.258Z,106.07
2018-12-11T04:24:56.145Z,102.00
2018-12-11T04:27:02.968Z,101.47
2018-12-11T04:29:09.930Z,103.97
2018-12-11T04:31:16.630Z,106.97
2018-12-11T04:33:23.459Z,111.73
2018-12-11T04:35:30.341Z,121.10
2018-12-11T04:37:36.989Z,120.30
2018-12-11T04:39:43.970Z,116.13
2018-12-11T04:41:51.091Z,119.20
2018-12-11T04:43:57.988Z,116.37
2018-12-11T04:46:04.827Z,116.93
2018-12-11T04:48:11.613Z,118.10
2018-12-11T04:50:18.418Z,116.00
2018-12-11T04:52:25.422Z,114.20
2018-12-11T04:54:32.285Z,98.37
2018-12-11T04:56:39.001Z,99.03
2018-12-11T04:58:45.884Z,90.60
2018-12-11T05:00:52.371Z,90.03
2018-12-11T05:02:59.234Z,88.60
2018-12-11T05:05:06.393Z,90.90
2018-12-11T05:07:13.058Z,105.77
2018-12-11T05:09:19.810Z,97.90
2018-12-11T05:11:26.843Z,107.27
2018-12-11T05:13:33.485Z,108.57
2018-12-11T05:15:40.253Z,111.87
2018-12-11T05:17:47.124Z,117.07
2018-12-11T05:19:53.801Z,119.07
2018-12-11T05:22:00.682Z,121.93
2018-12-11T05:24:07.312Z,122.27
2018-12-11T05:26:14.176Z,120.53
2018-12-11T05:28:20.823Z,120.67
2018-12-11T05:30:27.549Z,126.43
2018-12-11T05:32:34.286Z,116.63
2018-12-11T05:34:41.338Z,118.00
2018-12-11T05:36:47.969Z,117.90
2018-12-11T05:38:54.886Z,115.60
2018-12-11T05:41:01.680Z,114.73
2018-12-11T05:43:08.692Z,108.93
2018-12-11T05:45:16.166Z,103.57
2018-12-11T05:47:23.098Z,93.83
2018-12-11T05:49:29.889Z,94.20
2018-12-11T05:51:37.280Z,94.77
2018-12-11T05:53:45.006Z,92.97
2018-12-11T05:55:51.881Z,99.70
2018-12-11T05:57:58.686Z,98.13
2018-12-11T06:00:05.605Z,111.43
2018-12-11T06:02:12.371Z,112.47
2018-12-11T06:04:19.226Z,114.53
2018-12-11T06:06:25.777Z,114.30
2018-12-11T06:10:53.361Z,120.50
2018-12-11T06:13:00.169Z,122.57
2018-12-11T06:15:07.673Z,124.40
2018-12-11T06:17:14.994Z,122.67
2018-12-11T06:19:21.734Z,127.73
2018-12-11T06:21:28.806Z,128.00
2018-12-11T06:23:35.643Z,122.90
2018-12-11T06:25:42.841Z,117.30
2018-12-11T06:27:49.409Z,99.00
2018-12-11T06:29:56.071Z,92.33
2018-12-11T06:32:03.047Z,88.80
2018-12-11T06:34:09.570Z,90.07
2018-12-11T06:36:16.457Z,86.50
2018-12-11T06:38:23.265Z,93.07
2018-12-11T06:40:30.146Z,90.90
2018-12-11T06:42:36.739Z,95.73
2018-12-11T06:44:43.641Z,100.10
2018-12-11T06:46:50.337Z,102.07
2018-12-11T06:48:57.253Z,101.77
2018-12-11T06:51:04.087Z,105.20
2018-12-11T06:53:10.513Z,111.27
2018-12-11T06:55:17.056Z,112.67
2018-12-11T06:57:23.886Z,114.10
2018-12-11T06:59:31.622Z,121.00
2018-12-11T07:01:39.240Z,117.03
2018-12-11T07:03:46.152Z,122.10
2018-12-11T07:05:53.063Z,122.00
2018-12-11T07:07:59.971Z,126.57
2018-12-11T07:10:07.309Z,125.07
2018-12-11T07:12:14.252Z,124.67
2018-12-11T07:14:20.929Z,126.57
2018-12-11T07:16:27.903Z,129.27
2018-12-11T07:18:35.085Z,131.17
2018-12-11T07:20:42.126Z,129.90
2018-12-11T07:22:48.893Z,127.13
2018-12-11T07:24:57.633Z,127.67
2018-12-11T07:27:04.329Z,125.07
2018-12-11T07:29:11.324Z,116.87
2018-12-11T07:31:18.377Z,109.43
2018-12-11T07:33:25.245Z,112.50
2018-12-11T07:35:32.211Z,105.17
2018-12-11T07:37:39.217Z,103.63
2018-12-11T07:39:45.985Z,100.73
2018-12-11T07:41:53.089Z,109.07
2018-12-11T07:44:00.027Z,109.20
2018-12-11T07:46:07.317Z,111.33
2018-12-11T07:48:13.898Z,116.47
2018-12-11T07:50:20.398Z,119.97
2018-12-11T07:52:27.079Z,112.87
2018-12-11T07:54:34.221Z,112.93
2018-12-11T07:56:41.116Z,110.90
2018-12-11T07:58:47.917Z,104.23
2018-12-11T08:00:54.818Z,95.57
2018-12-11T08:03:01.750Z,93.60
2018-12-11T08:05:08.798Z,93.60
2018-12-11T08:07:15.573Z,108.00
2018-12-11T08:09:22.323Z,112.97
2018-12-11T08:11:29.341Z,112.93
2018-12-11T08:13:35.986Z,102.93
2018-12-11T08:15:43.345Z,114.53
2018-12-11T08:17:50.106Z,117.60
2018-12-11T08:19:57.080Z,122.27
2018-12-11T08:22:04.182Z,130.30
2018-12-11T08:24:10.898Z,127.83
2018-12-11T08:26:17.523Z,130.23
2018-12-11T08:28:24.426Z,126.73
2018-12-11T08:30:31.354Z,126.53
2018-12-11T08:32:38.424Z,127.30
2018-12-11T08:34:45.237Z,128.27
2018-12-11T08:36:51.855Z,130.10
2018-12-11T08:38:58.794Z,131.90
2018-12-11T08:41:05.470Z,132.23
2018-12-11T08:43:11.937Z,133.10
2018-12-11T08:45:18.706Z,129.93
2018-12-11T08:47:25.753Z,126.03
2018-12-11T08:49:32.870Z,126.03
2018-12-11T08:51:40.080Z,118.10
2018-12-11T08:53:47.055Z,110.67
2018-12-11T08:55:53.961Z,104.73
2018-12-11T08:58:00.678Z,109.57
2018-12-11T09:00:08.191Z,96.50
2018-12-11T09:02:15.104Z,95.83
2018-12-11T09:04:21.990Z,90.73
2018-12-11T09:06:28.802Z,90.30
2018-12-11T09:08:35.702Z,97.00
2018-12-11T09:10:42.639Z,110.30
2018-12-11T09:12:49.487Z,106.70
2018-12-11T09:14:56.113Z,112.10
2018-12-11T09:17:09.867Z,111.90
2018-12-11T09:19:12.191Z,119.97
2018-12-11T09:21:19.134Z,120.97
2018-12-11T09:23:25.864Z,125.60
2018-12-11T09:25:33.244Z,125.97
2018-12-11T09:27:39.889Z,132.33
2018-12-11T09:29:46.802Z,131.43
2018-12-11T09:31:53.765Z,130.53
2018-12-11T09:34:00.640Z,124.03
2018-12-11T09:36:07.368Z,120.83
2018-12-11T09:38:15.193Z,102.27
2018-12-11T09:40:24.661Z,100.10
2018-12-11T09:42:31.369Z,95.50
2018-12-11T09:44:38.155Z,94.23
2018-12-11T09:46:45.106Z,93.50
2018-12-11T09:48:52.037Z,88.17
2018-12-11T09:50:58.725Z,91.37
2018-12-11T09:53:05.507Z,108.90
2018-12-11T09:55:12.392Z,108.90
2018-12-11T09:57:19.210Z,110.97
2018-12-11T09:59:26.121Z,110.07
2018-12-11T10:01:32.986Z,117.60
2018-12-11T10:03:39.935Z,123.70
2018-12-11T10:05:47.150Z,127.00
2018-12-11T10:07:53.731Z,129.47
2018-12-11T10:10:00.906Z,129.77
2018-12-11T10:12:07.889Z,126.73
2018-12-11T10:14:14.959Z,128.87
2018-12-11T10:16:22.204Z,127.63
2018-12-11T10:18:29.227Z,135.73
2018-12-11T10:20:36.730Z,136.67
2018-12-11T10:22:43.962Z,137.37
2018-12-11T10:24:50.878Z,134.87
2018-12-11T10:26:57.635Z,136.87
2018-12-11T10:29:04.545Z,133.87
2018-12-11T10:31:11.629Z,120.40
2018-12-11T10:33:18.678Z,118.13
2018-12-11T10:35:25.496Z,109.67
2018-12-11T10:37:32.234Z,98.97
2018-12-11T10:39:39.211Z,98.13
2018-12-11T10:41:45.946Z,94.20
2018-12-11T10:43:52.721Z,105.50
2018-12-11T10:45:59.876Z,92.70
2018-12-11T10:48:07.502Z,95.77
2018-12-11T10:50:14.915Z,92.10
2018-12-11T10:52:22.839Z,90.30
2018-12-11T10:54:29.698Z,92.27
2018-12-11T10:56:36.347Z,91.40
2018-12-11T10:58:43.142Z,92.90
2018-12-11T11:00:54.497Z,94.97
2018-12-11T11:03:05.631Z,104.20
2018-12-11T11:05:12.410Z,116.40
2018-12-11T11:07:19.327Z,119.13
2018-12-11T11:09:26.123Z,119.80
2018-12-11T11:11:33.007Z,124.67
2018-12-11T11:13:40.107Z,130.27
2018-12-11T11:15:46.874Z,129.20
2018-12-11T11:17:53.863Z,133.40
2018-12-11T11:20:00.575Z,132.00
2018-12-11T11:22:07.221Z,132.77
2018-12-11T11:24:14.160Z,134.23
2018-12-11T11:26:21.030Z,135.27
2018-12-11T11:28:27.896Z,133.53
2018-12-11T11:30:34.729Z,136.60
2018-12-11T11:32:41.517Z,140.27
2018-12-11T11:34:49.047Z,137.77
2018-12-11T11:36:55.714Z,137.00
2018-12-11T11:39:02.530Z,136.23
2018-12-11T11:41:09.467Z,142.30
2018-12-11T11:43:16.339Z,142.37
2018-12-11T11:45:23.446Z,138.90
2018-12-11T11:47:30.113Z,138.37
2018-12-11T11:49:36.778Z,132.53
2018-12-11T11:51:43.870Z,128.23
2018-12-11T11:53:50.701Z,117.87
2018-12-11T11:55:57.278Z,104.07
2018-12-11T11:58:04.291Z,103.43
2018-12-11T12:00:14.348Z,102.00
2018-12-11T12:02:21.375Z,100.03
2018-12-11T12:04:28.060Z,95.77
2018-12-11T12:06:34.874Z,96.10
2018-12-11T12:08:41.895Z,96.50
2018-12-11T12:10:49.602Z,98.97
2018-12-11T12:12:56.322Z,92.20
2018-12-11T12:15:03.478Z,93.43
2018-12-11T12:17:10.659Z,124.63
2018-12-11T12:19:17.667Z,123.67
2018-12-11T12:21:24.413Z,128.23
2018-12-11T12:23:31.347Z,105.23
2018-12-11T12:25:38.958Z,120.57
2018-12-11T12:27:45.790Z,118.20
2018-12-11T12:29:52.622Z,123.27
2018-12-11T12:31:59.579Z,133.27
2018-12-11T12:34:06.556Z,126.00
2018-12-11T12:36:13.419Z,116.20
2018-12-11T12:38:20.110Z,110.03
2018-12-11T12:40:27.901Z,103.30
2018-12-11T12:42:34.961Z,97.67
2018-12-11T12:44:41.929Z,98.57
2018-12-11T12:46:49.949Z,96.47
2018-12-11T12:48:56.818Z,90.90
2018-12-11T12:51:03.697Z,93.60
2018-12-11T12:53:10.430Z,91.33
2018-12-11T12:55:17.685Z,91.20
2018-12-11T12:57:24.390Z,90.83
2018-12-11T12:59:31.067Z,94.20
2018-12-11T13:01:37.842Z,93.07
2018-12-11T13:03:44.880Z,86.63
2018-12-11T13:05:51.720Z,84.27
2018-12-11T13:07:58.506Z,87.80
2018-12-11T13:10:05.442Z,83.97
2018-12-11T13:12:12.126Z,87.40
2018-12-11T13:14:19.070Z,82.30
2018-12-11T13:16:25.993Z,81.77
2018-12-11T13:18:33.036Z,78.77
2018-12-11T13:20:40.292Z,79.73
2018-12-11T13:22:47.146Z,79.13
2018-12-11T13:24:53.894Z,78.60
2018-12-11T13:27:00.725Z,78.13
2018-12-11T13:29:07.528Z,81.27
2018-12-11T13:31:14.561Z,78.10
2018-12-11T13:33:21.955Z,80.80
2018-12-11T13:35:28.902Z,80.67
2018-12-11T13:37:35.912Z,77.87
2018-12-11T13:39:42.818Z,79.30
2018-12-11T13:41:49.451Z,79.63
2018-12-11T13:43:56.765Z,80.20
2018-12-11T13:46:03.574Z,89.80
2018-12-11T13:48:10.833Z,100.07
2018-12-11T13:50:17.427Z,119.70
2018-12-11T13:52:24.540Z,128.57
2018-12-11T13:54:32.128Z,128.03
2018-12-11T13:56:39.141Z,121.17
2018-12-11T13:58:46.286Z,119.13
2018-12-11T14:00:52.922Z,122.87
2018-12-11T14:03:00.006Z,119.83
2018-12-11T14:05:07.340Z,98.93
2018-12-11T14:07:14.418Z,94.33
2018-12-11T14:09:26.398Z,93.27
2018-12-11T14:11:34.211Z,88.53
2018-12-11T14:13:40.963Z,84.60
2018-12-11T14:15:48.071Z,85.43
2018-12-11T14:17:54.842Z,79.30
2018-12-11T14:20:01.628Z,81.00
2018-12-11T14:22:08.683Z,96.97
2018-12-11T14:24:16.111Z,104.77
2018-12-11T14:26:23.002Z,105.20
2018-12-11T14:28:30.925Z,113.93
2018-12-11T14:30:38.390Z,112.10
2018-12-11T14:32:45.530Z,109.53
2018-12-11T14:34:52.766Z,111.23
2018-12-11T14:36:59.823Z,116.37
2018-12-11T14:39:07.110Z,112.53
2018-12-11T14:41:14.092Z,118.97
2018-12-11T14:43:20.994Z,123.93
2018-12-11T14:45:27.742Z,128.80
2018-12-11T14:47:35.125Z,126.87
2018-12-11T14:49:42.509Z,130.13
2018-12-11T14:51:50.340Z,121.17
2018-12-11T14:53:57.926Z,114.60
2018-12-11T14:56:05.522Z,106.53
2018-12-11T14:58:12.528Z,101.07
2018-12-11T15:00:19.303Z,94.63
2018-12-11T15:02:26.217Z,89.37
2018-12-11T15:04:33.160Z,88.47
2018-12-11T15:06:40.181Z,88.17
2018-12-11T15:08:46.854Z,93.30
2018-12-11T15:10:53.542Z,89.23
2018-12-11T15:13:00.393Z,107.70
2018-12-11T15:15:08.147Z,110.90
2018-12-11T15:17:16.010Z,112.47
2018-12-11T15:19:22.809Z,111.70
2018-12-11T15:21:30.117Z,120.47
2018-12-11T15:23:37.542Z,114.10
2018-12-11T15:25:44.352Z,110.00
2018-12-11T15:27:51.854Z,110.57
2018-12-11T15:29:59.330Z,112.07
2018-12-11T15:32:06.069Z,111.47
2018-12-11T15:34:12.983Z,110.93
2018-12-11T15:36:20.214Z,107.97
2018-12-11T15:38:27.537Z,113.40
2018-12-11T15:40:34.785Z,112.53
2018-12-11T15:42:41.997Z,113.37
2018-12-11T15:44:49.012Z,105.90
2018-12-11T15:46:56.859Z,95.17
2018-12-11T15:49:03.898Z,92.63
2018-12-11T15:51:10.666Z,97.47
2018-12-11T15:53:17.963Z,85.97
2018-12-11T15:55:25.314Z,87.23
2018-12-11T15:57:32.105Z,98.13
2018-12-11T15:59:39.539Z,118.43
2018-12-11T16:01:46.843Z,112.23
2018-12-11T16:03:54.335Z,115.90
2018-12-11T16:06:01.273Z,106.57
2018-12-11T16:08:07.972Z,107.60
2018-12-11T16:10:14.945Z,108.00
2018-12-11T16:12:21.876Z,107.23
2018-12-11T16:14:29.550Z,111.73
2018-12-11T16:16:36.789Z,114.03
2018-12-11T16:18:43.809Z,106.03
2018-12-11T16:20:50.794Z,109.60
2018-12-11T16:22:58.703Z,110.33
2018-12-11T16:25:05.581Z,110.90
2018-12-11T16:27:13.206Z,113.23
2018-12-11T16:29:20.286Z,110.23
2018-12-11T16:31:27.000Z,115.30
2018-12-11T16:33:33.777Z,112.80
2018-12-11T16:35:40.602Z,110.23
2018-12-11T16:37:47.596Z,105.70
2018-12-11T16:39:54.802Z,103.07
2018-12-11T16:42:02.221Z,94.97
2018-12-11T16:44:09.591Z,94.60
2018-12-11T16:46:16.510Z,96.70
2018-12-11T16:48:23.931Z,90.93
2018-12-11T16:50:31.754Z,86.37
2018-12-11T16:52:38.626Z,87.60
2018-12-11T16:54:45.876Z,113.97
2018-12-11T16:56:53.621Z,98.80
2018-12-11T16:59:00.922Z,103.00
2018-12-11T17:01:08.181Z,101.20
2018-12-11T17:03:15.290Z,104.10
2018-12-11T17:05:22.590Z,112.60
2018-12-11T17:07:29.557Z,102.23
2018-12-11T17:09:39.678Z,105.57
2018-12-11T17:11:47.142Z,101.20
2018-12-11T17:13:54.052Z,108.33
2018-12-11T17:16:00.925Z,98.60
2018-12-11T17:18:07.946Z,107.23
2018-12-11T17:20:15.791Z,107.10
2018-12-11T17:22:22.522Z,106.83
2018-12-11T17:24:29.194Z,112.70
2018-12-11T17:26:36.382Z,113.03
2018-12-11T17:28:43.593Z,108.53
2018-12-11T17:30:50.975Z,110.37
2018-12-11T17:32:58.186Z,112.87
2018-12-11T17:35:05.371Z,113.87
2018-12-11T17:37:12.598Z,118.33
2018-12-11T17:39:19.370Z,112.80
2018-12-11T17:41:26.747Z,118.13
2018-12-11T17:43:34.160Z,110.13
2018-12-11T17:45:40.886Z,120.07
2018-12-11T17:47:48.192Z,113.67
2018-12-11T17:49:55.335Z,130.70
2018-12-11T17:52:02.593Z,115.67
2018-12-11T17:54:10.274Z,115.97
2018-12-11T17:56:17.416Z,113.53
2018-12-11T17:58:24.554Z,116.33
2018-12-11T18:00:31.377Z,104.60
2018-12-11T18:02:40.030Z,110.50
2018-12-11T18:04:47.205Z,114.63
2018-12-11T18:06:54.598Z,112.40
2018-12-11T18:09:01.837Z,110.10
2018-12-11T18:11:09.134Z,105.73
2018-12-11T18:13:16.318Z,114.73
2018-12-11T18:15:23.765Z,123.07
2018-12-11T18:17:30.942Z,115.73
2018-12-11T18:19:37.825Z,118.70
2018-12-11T18:21:45.502Z,117.23
2018-12-11T18:23:52.317Z,99.87
2018-12-11T18:25:59.322Z,103.00
2018-12-11T18:28:06.576Z,95.87
2018-12-11T18:30:13.994Z,99.53
2018-12-11T18:32:25.072Z,100.27
2018-12-11T18:34:30.140Z,98.40
2018-12-11T18:36:37.141Z,91.27
2018-12-11T18:38:44.462Z,92.73
2018-12-11T18:40:51.481Z,91.53
2018-12-11T18:42:58.386Z,125.33
2018-12-11T18:45:05.975Z,110.63
2018-12-11T18:47:12.727Z,101.43
2018-12-11T18:49:19.704Z,112.27
2018-12-11T18:51:27.256Z,114.23
2018-12-11T18:53:34.022Z,103.40
2018-12-11T18:55:41.343Z,113.07
2018-12-11T18:57:48.189Z,115.87
2018-12-11T18:59:55.197Z,103.87
2018-12-11T19:02:02.172Z,106.40
2018-12-11T19:04:08.943Z,121.67
2018-12-11T19:06:15.838Z,110.87
2018-12-11T19:08:23.809Z,107.67
2018-12-11T19:10:30.992Z,108.57
2018-12-11T19:12:38.362Z,114.63
2018-12-11T19:14:45.496Z,113.27
2018-12-11T19:16:52.783Z,117.20
2018-12-11T19:18:59.975Z,107.27
2018-12-11T19:21:06.946Z,105.80
2018-12-11T19:23:54.036Z,110.90
2018-12-11T19:26:01.322Z,110.07
2018-12-11T19:28:08.659Z,125.17
2018-12-11T19:30:15.853Z,122.57
2018-12-11T19:32:23.400Z,125.53
2018-12-11T19:34:30.404Z,119.30
2018-12-11T19:36:37.199Z,118.43
2018-12-11T19:38:44.271Z,113.70
2018-12-11T19:40:51.070Z,125.07
2018-12-11T19:42:58.103Z,122.00
2018-12-11T19:45:04.902Z,125.77
2018-12-11T19:47:11.923Z,131.30
2018-12-11T19:49:18.781Z,128.67
2018-12-11T19:51:25.911Z,123.47
2018-12-11T19:53:32.872Z,127.90
2018-12-11T19:55:39.685Z,123.60
2018-12-11T19:57:46.369Z,112.00
2018-12-11T19:59:53.385Z,104.70
2018-12-11T20:02:00.871Z,104.43
2018-12-11T20:04:07.694Z,101.93
2018-12-11T20:06:15.505Z,96.43
2018-12-11T20:08:22.567Z,111.03
2018-12-11T20:10:30.357Z,113.43
2018-12-11T20:12:37.431Z,124.27
2018-12-11T20:14:44.378Z,125.70
2018-12-11T20:16:51.040Z,130.10
2018-12-11T20:18:57.641Z,111.63
2018-12-11T20:21:04.617Z,122.13
2018-12-11T20:23:11.330Z,126.03
2018-12-11T20:25:18.495Z,128.57
2018-12-11T20:27:25.398Z,126.90
2018-12-11T20:29:32.304Z,131.67
2018-12-11T20:31:39.139Z,128.97
2018-12-11T20:33:45.965Z,130.53
2018-12-11T20:35:53.087Z,135.97
2018-12-11T20:37:59.830Z,132.47
2018-12-11T20:40:06.799Z,135.53
2018-12-11T20:42:13.513Z,135.97
2018-12-11T20:44:20.551Z,143.77
2018-12-11T20:46:27.310Z,144.70
2018-12-11T20:48:34.320Z,148.83
2018-12-11T20:50:41.133Z,139.07
2018-12-11T20:52:48.386Z,148.50
2018-12-11T20:54:54.974Z,148.07
2018-12-11T20:57:01.545Z,151.47
2018-12-11T20:59:09.158Z,144.37
2018-12-11T21:01:16.317Z,144.83
2018-12-11T21:03:23.112Z,132.90
2018-12-11T21:05:29.788Z,121.23
2018-12-11T21:07:36.798Z,119.10
2018-12-11T21:09:43.734Z,114.03
2018-12-11T21:11:50.812Z,108.53
2018-12-11T21:13:58.005Z,113.10
2018-12-11T21:16:10.847Z,125.43
2018-12-11T21:18:14.055Z,140.53
2018-12-11T21:20:21.066Z,138.83
2018-12-11T21:22:28.164Z,120.07
2018-12-11T21:24:35.591Z,113.77
2018-12-11T21:26:43.147Z,111.20
2018-12-11T21:28:50.173Z,109.77
2018-12-11T21:30:57.306Z,108.33
2018-12-11T21:33:04.171Z,102.47
2018-12-11T21:35:11.976Z,105.63
2018-12-11T21:37:19.040Z,105.30
2018-12-11T21:39:25.887Z,102.43
2018-12-11T21:41:32.861Z,104.27
2018-12-11T21:43:39.779Z,104.30
2018-12-11T21:45:46.819Z,106.63
2018-12-11T21:47:53.824Z,104.13
2018-12-11T21:50:01.053Z,100.33
2018-12-11T21:52:08.180Z,96.83
2018-12-11T21:55:28.793Z,95.07
2018-12-11T21:57:35.711Z,92.00
2018-12-11T21:59:42.871Z,90.13
2018-12-11T22:01:49.749Z,88.73
2018-12-11T22:04:00.488Z,83.13
2018-12-11T22:06:07.803Z,81.23
2018-12-11T22:08:14.562Z,78.60
2018-12-11T22:10:21.501Z,75.67
2018-12-11T22:12:29.252Z,72.73
2018-12-11T22:14:36.312Z,71.40
2018-12-11T22:16:43.166Z,70.77
2018-12-11T22:18:50.226Z,69.37
2018-12-11T22:20:57.238Z,65.97
2018-12-11T22:23:04.800Z,64.53
2018-12-11T22:25:11.830Z,67.83
2018-12-11T22:27:18.809Z,64.63
2018-12-11T22:29:25.987Z,65.30
2018-12-11T22:31:34.062Z,64.97
2018-12-11T22:33:41.108Z,75.50
2018-12-11T22:35:48.105Z,76.83
2018-12-11T22:37:55.233Z,82.87
2018-12-11T22:40:02.229Z,87.90
2018-12-11T22:42:10.109Z,91.20
2018-12-11T22:44:18.193Z,89.37
2018-12-11T22:46:25.160Z,99.97
2018-12-11T22:48:33.506Z,96.70
2018-12-11T22:50:40.826Z,97.33
2018-12-11T22:52:48.054Z,101.27
2018-12-11T22:54:55.165Z,106.67
2018-12-11T22:57:01.993Z,103.43
2018-12-11T22:59:08.914Z,103.37
2018-12-11T23:01:15.693Z,107.93
2018-12-11T23:03:22.509Z,111.43
2018-12-11T23:05:29.541Z,108.13
2018-12-11T23:07:36.350Z,111.60
2018-12-11T23:09:47.133Z,113.60
2018-12-11T23:11:54.417Z,112.33
2018-12-11T23:14:01.294Z,115.63
2018-12-11T23:16:08.281Z,117.43
2018-12-11T23:18:15.102Z,114.40
2018-12-11T23:20:22.237Z,118.23
2018-12-11T23:22:29.588Z,110.23
2018-12-11T23:24:37.335Z,106.13
2018-12-11T23:26:44.637Z,93.27
2018-12-11T23:28:51.646Z,91.73
2018-12-11T23:30:58.286Z,85.13
2018-12-11T23:33:05.356Z,85.13
2018-12-11T23:35:12.206Z,78.00
2018-12-11T23:37:19.034Z,110.63
2018-12-11T23:39:25.912Z,103.47
2018-12-11T23:41:33.190Z,99.33
2018-12-11T23:43:40.450Z,102.67
2018-12-11T23:45:47.165Z,103.13
2018-12-11T23:47:54.064Z,111.53
2018-12-11T23:50:00.928Z,111.77
2018-12-11T23:52:07.975Z,108.17
2018-12-11T23:54:14.262Z,106.30
2018-12-11T23:56:20.996Z,108.77
2018-12-11T23:58:27.879Z,113.60
